createdAt,value
2018-08-22T00:01:16.699Z,8.60
2018-08-22T00:03:45.130Z,7.50
2018-08-22T00:06:13.591Z,11.70
2018-08-22T00:08:42.949Z,8.53
2018-08-22T00:11:12.086Z,8.13
2018-08-22T00:13:40.670Z,10.27
2018-08-22T00:16:09.092Z,9.53
2018-08-22T00:18:37.516Z,7.97
2018-08-22T00:21:05.982Z,8.93
2018-08-22T00:23:34.464Z,11.33
2018-08-22T00:26:02.919Z,7.63
2018-08-22T00:28:31.332Z,7.50
2018-08-22T00:30:59.857Z,13.13
2018-08-22T00:33:28.307Z,7.83
2018-08-22T00:35:56.728Z,8.13
2018-08-22T00:38:25.176Z,8.47
2018-08-22T00:40:53.589Z,8.23
2018-08-22T00:43:22.019Z,8.73
2018-08-22T00:45:50.471Z,8.83
2018-08-22T00:48:18.892Z,10.70
2018-08-22T00:50:47.353Z,8.83
2018-08-22T00:53:15.789Z,11.50
2018-08-22T00:55:44.217Z,10.67
2018-08-22T00:58:12.665Z,8.27
2018-08-22T01:00:41.102Z,10.70
2018-08-22T01:03:09.548Z,11.47
2018-08-22T01:05:37.981Z,14.90
2018-08-22T01:08:06.428Z,9.80
2018-08-22T01:10:34.897Z,9.70
2018-08-22T01:13:03.337Z,6.37
2018-08-22T01:15:31.811Z,12.67
2018-08-22T01:18:00.233Z,12.27
2018-08-22T01:20:29.057Z,9.20
2018-08-22T01:22:57.592Z,10.03
2018-08-22T01:25:26.025Z,11.27
2018-08-22T01:27:54.485Z,9.27
2018-08-22T01:30:22.911Z,33.13
2018-08-22T01:32:51.371Z,7.53
2018-08-22T01:35:19.801Z,7.43
2018-08-22T01:37:48.246Z,9.20
2018-08-22T01:40:16.714Z,7.07
2018-08-22T01:42:45.161Z,7.13
2018-08-22T01:45:13.634Z,9.47
2018-08-22T01:47:42.064Z,7.23
2018-08-22T01:50:10.509Z,13.33
2018-08-22T01:52:38.936Z,9.23
2018-08-22T01:55:07.413Z,6.97
2018-08-22T01:57:35.825Z,7.73
2018-08-22T02:00:04.413Z,6.57
2018-08-22T02:02:32.844Z,7.50
2018-08-22T02:05:01.276Z,9.40
2018-08-22T02:07:29.777Z,7.40
2018-08-22T02:09:58.195Z,14.00
2018-08-22T02:12:26.663Z,8.80
2018-08-22T02:14:55.074Z,6.60
2018-08-22T02:17:23.503Z,7.00
2018-08-22T02:19:51.966Z,8.07
2018-08-22T02:22:20.392Z,6.50
2018-08-22T02:24:48.822Z,9.43
2018-08-22T02:27:17.276Z,6.50
2018-08-22T02:29:45.717Z,6.10
2018-08-22T02:32:14.153Z,6.93
2018-08-22T02:34:42.622Z,6.03
2018-08-22T02:37:11.052Z,7.00
2018-08-22T02:39:39.482Z,9.17
2018-08-22T02:42:07.922Z,7.30
2018-08-22T02:44:36.353Z,9.37
2018-08-22T02:47:04.824Z,5.90
2018-08-22T02:49:33.248Z,4.70
2018-08-22T02:52:01.678Z,6.20
2018-08-22T02:54:30.103Z,5.23
2018-08-22T02:56:58.555Z,4.93
2018-08-22T02:59:26.966Z,7.23
2018-08-22T03:01:55.370Z,8.43
2018-08-22T03:04:23.833Z,10.00
2018-08-22T03:06:52.238Z,8.03
2018-08-22T03:09:20.717Z,5.30
2018-08-22T03:11:49.133Z,5.27
2018-08-22T03:14:17.577Z,5.57
2018-08-22T03:16:46.118Z,4.83
2018-08-22T03:19:14.531Z,5.30
2018-08-22T03:21:42.961Z,4.83
2018-08-22T03:24:11.380Z,6.30
2018-08-22T03:26:39.810Z,8.17
2018-08-22T03:29:08.240Z,6.70
2018-08-22T03:31:36.666Z,4.83
2018-08-22T03:34:05.109Z,7.57
2018-08-22T03:36:33.560Z,9.63
2018-08-22T03:39:02.058Z,5.63
2018-08-22T03:41:30.477Z,6.20
2018-08-22T03:43:58.920Z,7.00
2018-08-22T03:46:27.334Z,5.07
2018-08-22T03:48:55.773Z,6.87
2018-08-22T03:51:24.225Z,10.53
2018-08-22T03:53:52.646Z,6.13
2018-08-22T03:56:21.087Z,6.87
2018-08-22T03:58:49.541Z,7.30
2018-08-22T04:01:17.962Z,9.27
2018-08-22T04:03:46.388Z,9.17
2018-08-22T04:06:14.821Z,15.10
2018-08-22T04:08:43.239Z,7.70
2018-08-22T04:11:11.663Z,6.37
2018-08-22T04:13:40.100Z,6.33
2018-08-22T04:16:08.517Z,7.07
2018-08-22T04:18:36.965Z,26.87
2018-08-22T04:21:05.513Z,7.83
2018-08-22T04:23:33.965Z,6.17
2018-08-22T04:26:02.380Z,8.43
2018-08-22T04:28:30.856Z,6.30
2018-08-22T04:30:59.338Z,6.60
2018-08-22T04:33:27.729Z,6.10
2018-08-22T04:35:56.166Z,9.13
2018-08-22T04:38:24.582Z,6.10
2018-08-22T04:40:53.039Z,8.67
2018-08-22T04:43:21.470Z,7.30
2018-08-22T04:45:49.919Z,14.33
2018-08-22T04:48:18.409Z,7.47
2018-08-22T04:50:46.776Z,5.60
2018-08-22T04:53:15.333Z,12.80
2018-08-22T04:55:43.767Z,7.27
2018-08-22T04:58:12.209Z,6.73
2018-08-22T05:00:40.666Z,11.20
2018-08-22T05:03:09.075Z,9.53
2018-08-22T05:05:37.513Z,7.30
2018-08-22T05:08:05.953Z,11.23
2018-08-22T05:10:34.394Z,5.40
2018-08-22T05:13:02.806Z,8.43
2018-08-22T05:15:31.309Z,6.80
2018-08-22T05:17:59.780Z,16.90
2018-08-22T05:20:28.210Z,11.83
2018-08-22T05:22:56.656Z,8.10
2018-08-22T05:25:25.090Z,10.57
2018-08-22T05:27:53.525Z,7.50
2018-08-22T05:30:21.933Z,12.20
2018-08-22T05:32:50.417Z,8.50
2018-08-22T05:35:18.837Z,14.80
2018-08-22T05:37:47.293Z,15.27
2018-08-22T05:40:15.753Z,18.63
2018-08-22T05:42:44.181Z,5.43
2018-08-22T05:45:12.628Z,8.80
2018-08-22T05:47:41.062Z,10.73
2018-08-22T05:50:09.523Z,6.27
2018-08-22T05:52:37.940Z,20.93
2018-08-22T05:55:06.373Z,14.37
2018-08-22T05:57:34.868Z,12.90
2018-08-22T06:00:03.339Z,13.13
2018-08-22T06:02:31.802Z,21.03
2018-08-22T06:05:00.238Z,10.77
2018-08-22T06:07:28.705Z,10.43
2018-08-22T06:09:57.150Z,15.97
2018-08-22T06:12:25.597Z,8.90
2018-08-22T06:14:54.033Z,14.97
2018-08-22T06:17:22.490Z,7.13
2018-08-22T06:19:51.202Z,5.63
2018-08-22T06:22:19.670Z,14.87
2018-08-22T06:24:48.181Z,6.37
2018-08-22T06:27:16.629Z,15.93
2018-08-22T06:29:45.085Z,9.20
2018-08-22T06:32:13.555Z,8.17
2018-08-22T06:34:42.014Z,5.50
2018-08-22T06:37:10.460Z,7.63
2018-08-22T06:39:38.888Z,9.17
2018-08-22T06:42:07.314Z,6.20
2018-08-22T06:44:35.856Z,6.80
2018-08-22T06:47:04.277Z,6.27
2018-08-22T06:49:32.711Z,9.57
2018-08-22T06:52:01.139Z,8.63
2018-08-22T06:54:29.573Z,8.83
2018-08-22T06:56:58.026Z,15.63
2018-08-22T06:59:26.473Z,8.60
2018-08-22T07:01:54.894Z,13.10
2018-08-22T07:04:23.367Z,3.80
2018-08-22T07:06:51.796Z,5.87
2018-08-22T07:09:20.321Z,8.60
2018-08-22T07:11:48.757Z,6.13
2018-08-22T07:14:17.181Z,9.27
2018-08-22T07:16:45.658Z,9.20
2018-08-22T07:19:14.101Z,5.40
2018-08-22T07:21:42.603Z,4.47
2018-08-22T07:24:11.058Z,11.70
2018-08-22T07:26:39.509Z,10.60
2018-08-22T07:29:07.939Z,5.87
2018-08-22T07:31:36.390Z,9.90
2018-08-22T07:34:04.886Z,6.27
2018-08-22T07:36:33.348Z,18.07
2018-08-22T07:39:01.822Z,7.20
2018-08-22T07:41:30.261Z,6.73
2018-08-22T07:43:58.820Z,11.90
2018-08-22T07:46:27.257Z,13.80
2018-08-22T07:48:55.774Z,7.33
2018-08-22T07:51:25.238Z,8.53
2018-08-22T07:53:53.657Z,8.27
2018-08-22T07:56:23.861Z,11.93
2018-08-22T07:59:03.876Z,8.97
2018-08-22T08:01:32.374Z,11.13
2018-08-22T08:04:00.821Z,11.37
2018-08-22T08:06:29.243Z,14.63
2018-08-22T08:08:57.711Z,16.23
2018-08-22T08:11:26.171Z,7.23
2018-08-22T08:13:54.626Z,21.80
2018-08-22T08:16:23.065Z,11.27
2018-08-22T08:18:51.527Z,15.63
2018-08-22T08:21:19.974Z,18.30
2018-08-22T08:23:48.406Z,13.80
2018-08-22T08:26:16.878Z,21.73
2018-08-22T08:28:45.297Z,22.10
2018-08-22T08:31:13.777Z,18.37
2018-08-22T08:33:42.238Z,18.47
2018-08-22T08:36:10.756Z,25.40
2018-08-22T08:38:39.344Z,9.53
2018-08-22T08:41:07.765Z,11.00
2018-08-22T08:43:36.334Z,21.30
2018-08-22T08:46:05.039Z,9.77
2018-08-22T08:48:33.624Z,16.93
2018-08-22T08:51:02.074Z,11.37
2018-08-22T08:53:30.550Z,8.10
2018-08-22T08:55:58.968Z,25.17
2018-08-22T08:58:27.406Z,12.77
2018-08-22T09:00:55.851Z,10.10
2018-08-22T09:03:24.352Z,18.00
2018-08-22T09:05:52.833Z,12.77
2018-08-22T09:08:21.270Z,5.97
2018-08-22T09:10:49.861Z,6.70
2018-08-22T09:13:18.188Z,10.13
2018-08-22T09:15:46.692Z,14.83
2018-08-22T09:18:15.096Z,11.07
2018-08-22T09:20:43.525Z,8.73
2018-08-22T09:23:11.983Z,6.93
2018-08-22T09:25:40.413Z,9.30
2018-08-22T09:28:08.887Z,14.73
2018-08-22T09:30:37.285Z,7.83
2018-08-22T09:33:05.841Z,14.53
2018-08-22T09:35:34.332Z,16.07
2018-08-22T09:38:02.745Z,11.33
2018-08-22T09:40:31.255Z,11.10
2018-08-22T09:43:00.066Z,10.93
2018-08-22T09:45:28.507Z,14.53
2018-08-22T09:47:56.941Z,13.87
2018-08-22T09:50:25.387Z,11.67
2018-08-22T09:52:53.812Z,17.23
2018-08-22T09:55:22.224Z,14.30
2018-08-22T09:57:50.677Z,10.40
2018-08-22T10:00:24.359Z,5.50
2018-08-22T10:02:52.821Z,13.30
2018-08-22T10:05:21.240Z,9.60
2018-08-22T10:07:49.660Z,15.60
2018-08-22T10:10:17.804Z,12.60
2018-08-22T10:12:46.253Z,21.50
2018-08-22T10:15:14.694Z,17.67
2018-08-22T10:17:43.125Z,25.83
2018-08-22T10:20:11.566Z,28.70
2018-08-22T10:22:39.997Z,15.53
2018-08-22T10:25:08.445Z,19.70
2018-08-22T10:27:36.886Z,17.13
2018-08-22T10:30:05.873Z,21.60
2018-08-22T10:32:34.561Z,24.73
2018-08-22T10:35:03.206Z,19.17
2018-08-22T10:37:31.730Z,29.60
2018-08-22T10:40:00.154Z,31.40
2018-08-22T10:42:28.617Z,20.87
2018-08-22T10:44:57.038Z,17.70
2018-08-22T10:47:25.813Z,25.27
2018-08-22T10:49:54.264Z,21.50
2018-08-22T10:52:22.683Z,15.60
2018-08-22T10:55:22.034Z,20.70
2018-08-22T10:57:50.521Z,17.43
2018-08-22T11:00:19.345Z,15.20
2018-08-22T11:02:47.826Z,22.30
2018-08-22T11:05:17.347Z,11.80
2018-08-22T11:07:45.781Z,16.50
2018-08-22T11:10:14.194Z,13.53
2018-08-22T11:12:42.625Z,12.30
2018-08-22T11:15:11.047Z,12.67
2018-08-22T11:17:39.510Z,14.93
2018-08-22T11:20:07.926Z,8.50
2018-08-22T11:22:47.737Z,13.93
2018-08-22T11:25:27.374Z,15.03
2018-08-22T11:28:06.861Z,18.57
2018-08-22T11:30:46.653Z,15.33
2018-08-22T11:33:26.292Z,20.20
2018-08-22T11:35:53.576Z,20.03
2018-08-22T11:38:22.028Z,15.23
2018-08-22T11:40:50.488Z,12.73
2018-08-22T11:43:18.906Z,16.27
2018-08-22T11:45:47.353Z,16.27
2018-08-22T11:48:15.778Z,12.80
2018-08-22T11:50:44.224Z,9.37
2018-08-22T11:53:12.645Z,11.27
2018-08-22T11:55:41.120Z,10.60
2018-08-22T11:58:09.671Z,14.07
2018-08-22T12:00:38.385Z,11.27
2018-08-22T12:03:06.849Z,18.20
2018-08-22T12:05:35.294Z,15.33
2018-08-22T12:08:03.749Z,20.40
2018-08-22T12:10:32.704Z,18.63
2018-08-22T12:13:02.903Z,14.23
2018-08-22T12:15:31.400Z,13.33
2018-08-22T12:17:59.825Z,13.13
2018-08-22T12:20:28.523Z,23.00
2018-08-22T12:22:56.971Z,12.83
2018-08-22T12:25:25.457Z,10.70
2018-08-22T12:27:54.723Z,15.03
2018-08-22T12:30:23.185Z,13.67
2018-08-22T12:32:51.604Z,11.77
2018-08-22T12:35:20.050Z,16.63
2018-08-22T12:37:48.506Z,12.63
2018-08-22T12:40:16.920Z,12.77
2018-08-22T12:42:45.365Z,11.93
2018-08-22T12:45:13.809Z,14.63
2018-08-22T12:47:42.264Z,11.50
2018-08-22T12:50:10.708Z,12.03
2018-08-22T12:52:39.111Z,14.53
2018-08-22T12:55:07.589Z,9.43
2018-08-22T12:57:36.009Z,11.77
2018-08-22T13:00:04.751Z,9.77
2018-08-22T13:02:33.168Z,7.70
2018-08-22T13:05:01.722Z,6.80
2018-08-22T13:07:30.945Z,9.93
2018-08-22T13:09:59.365Z,13.30
2018-08-22T13:12:28.142Z,11.70
2018-08-22T13:14:56.562Z,10.03
2018-08-22T13:17:25.053Z,14.90
2018-08-22T13:19:53.468Z,11.03
2018-08-22T13:22:21.905Z,14.60
2018-08-22T13:24:50.475Z,14.20
2018-08-22T13:27:18.795Z,12.13
2018-08-22T13:29:47.246Z,13.30
2018-08-22T13:32:15.686Z,20.03
2018-08-22T13:34:44.184Z,14.40
2018-08-22T13:37:12.609Z,13.37
2018-08-22T13:39:41.115Z,12.90
2018-08-22T13:42:09.585Z,10.23
2018-08-22T13:44:38.013Z,6.93
2018-08-22T13:47:06.481Z,12.03
2018-08-22T13:49:34.913Z,7.03
2018-08-22T13:52:03.323Z,12.57
2018-08-22T13:54:31.779Z,8.73
2018-08-22T13:57:00.190Z,10.30
2018-08-22T13:59:28.653Z,15.90
2018-08-22T14:01:57.073Z,11.50
2018-08-22T14:04:25.507Z,14.20
2018-08-22T14:06:54.120Z,14.27
2018-08-22T14:09:22.573Z,12.27
2018-08-22T14:11:51.013Z,10.63
2018-08-22T14:14:19.469Z,11.20
2018-08-22T14:16:47.895Z,12.13
2018-08-22T14:19:16.332Z,9.50
2018-08-22T14:21:44.758Z,15.60
2018-08-22T14:24:13.229Z,16.10
2018-08-22T14:26:41.661Z,8.77
2018-08-22T14:29:10.089Z,11.00
2018-08-22T14:31:38.514Z,20.67
2018-08-22T14:34:06.937Z,8.93
2018-08-22T14:36:35.422Z,21.77
2018-08-22T14:39:05.105Z,11.73
2018-08-22T14:41:33.532Z,10.47
2018-08-22T14:44:01.993Z,11.50
2018-08-22T14:46:30.440Z,12.80
2018-08-22T14:48:58.870Z,13.57
2018-08-22T14:51:27.292Z,14.47
2018-08-22T14:53:55.714Z,9.00
2018-08-22T14:56:24.264Z,12.93
2018-08-22T14:58:52.569Z,15.73
2018-08-22T15:01:21.009Z,19.33
2018-08-22T15:03:49.548Z,12.70
2018-08-22T15:06:17.964Z,15.13
2018-08-22T15:08:46.403Z,13.03
2018-08-22T15:11:14.841Z,10.07
2018-08-22T15:13:43.318Z,17.33
2018-08-22T15:16:11.769Z,13.73
2018-08-22T15:18:40.209Z,21.27
2018-08-22T15:21:08.652Z,15.00
2018-08-22T15:23:37.098Z,15.67
2018-08-22T15:26:05.840Z,13.93
2018-08-22T15:28:34.265Z,17.60
2018-08-22T15:31:02.735Z,17.87
2018-08-22T15:33:31.163Z,15.90
2018-08-22T15:35:59.636Z,15.60
2018-08-22T15:38:28.072Z,17.40
2018-08-22T15:40:56.593Z,30.93
2018-08-22T15:43:24.981Z,18.43
2018-08-22T15:45:53.421Z,12.63
2018-08-22T15:48:21.888Z,13.70
2018-08-22T15:50:50.309Z,13.27
2018-08-22T15:53:18.913Z,13.83
2018-08-22T15:55:47.296Z,24.83
2018-08-22T15:58:15.765Z,17.10
2018-08-22T16:00:46.477Z,29.00
2018-08-22T16:03:14.921Z,17.40
2018-08-22T16:05:44.329Z,17.53
2018-08-22T16:08:13.400Z,28.57
2018-08-22T16:10:41.818Z,15.83
2018-08-22T16:13:16.436Z,14.73
2018-08-22T16:15:45.572Z,26.53
2018-08-22T16:18:14.017Z,22.03
2018-08-22T16:20:51.381Z,17.73
2018-08-22T16:23:19.841Z,23.10
2018-08-22T16:25:50.517Z,12.37
2018-08-22T16:28:19.002Z,13.67
2018-08-22T16:30:56.859Z,24.53
2018-08-22T16:33:16.718Z,24.80
2018-08-22T16:35:45.176Z,20.03
2018-08-22T16:38:14.441Z,20.53
2018-08-22T16:40:44.289Z,27.97
2018-08-22T16:43:12.725Z,21.30
2018-08-22T16:45:46.650Z,23.10
2018-08-22T16:48:18.040Z,18.27
2018-08-22T16:50:46.469Z,21.93
2018-08-22T16:53:14.902Z,23.10
2018-08-22T16:55:43.343Z,20.90
2018-08-22T16:58:11.788Z,18.57
2018-08-22T17:00:43.287Z,23.30
2018-08-22T17:03:11.924Z,34.90
2018-08-22T17:05:40.492Z,21.47
2018-08-22T17:08:08.933Z,21.80
2018-08-22T17:10:52.254Z,19.37
2018-08-22T17:13:29.267Z,18.37
2018-08-22T17:15:59.008Z,19.93
2018-08-22T17:18:27.797Z,23.13
2018-08-22T17:20:56.287Z,25.80
2018-08-22T17:23:24.753Z,29.03
2018-08-22T17:25:53.191Z,26.33
2018-08-22T17:28:28.742Z,30.20
2018-08-22T17:30:57.230Z,25.63
2018-08-22T17:33:30.219Z,20.27
2018-08-22T17:35:59.092Z,27.17
2018-08-22T17:38:27.520Z,27.33
2018-08-22T17:40:56.004Z,16.93
2018-08-22T17:43:24.523Z,20.77
2018-08-22T17:45:52.965Z,18.90
2018-08-22T17:48:22.268Z,33.80
2018-08-22T17:50:51.345Z,21.80
2018-08-22T17:53:19.874Z,19.83
2018-08-22T17:55:49.822Z,17.53
2018-08-22T17:58:18.756Z,20.73
2018-08-22T18:00:47.262Z,22.43
2018-08-22T18:03:15.737Z,29.63
2018-08-22T18:05:44.197Z,21.70
2018-08-22T18:08:12.633Z,17.53
2018-08-22T18:10:41.121Z,17.40
2018-08-22T18:13:15.433Z,19.60
2018-08-22T18:15:44.589Z,20.80
2018-08-22T18:18:13.074Z,28.97
2018-08-22T18:20:47.341Z,18.03
2018-08-22T18:23:16.618Z,22.03
2018-08-22T18:25:55.349Z,16.43
2018-08-22T18:28:24.258Z,14.57
2018-08-22T18:30:52.714Z,17.90
2018-08-22T18:33:21.189Z,12.73
2018-08-22T18:35:49.641Z,20.10
2018-08-22T18:38:18.208Z,16.43
2018-08-22T18:40:56.964Z,22.43
2018-08-22T18:43:25.442Z,17.43
2018-08-22T18:46:06.250Z,17.80
2018-08-22T18:48:35.631Z,27.80
2018-08-22T18:51:04.596Z,18.70
2018-08-22T18:53:33.120Z,21.63
2018-08-22T18:56:42.333Z,17.97
2018-08-22T18:59:23.995Z,12.60
2018-08-22T19:01:52.457Z,31.73
2018-08-22T19:04:21.048Z,23.33
2018-08-22T19:06:49.481Z,15.47
2018-08-22T19:09:17.941Z,14.20
2018-08-22T19:11:46.368Z,15.70
2018-08-22T19:14:14.865Z,14.10
2018-08-22T19:16:43.349Z,15.93
2018-08-22T19:19:11.796Z,21.80
2018-08-22T19:21:40.224Z,16.97
2018-08-22T19:24:08.785Z,16.37
2018-08-22T19:26:37.426Z,16.13
2018-08-22T19:29:06.643Z,15.03
2018-08-22T19:31:36.868Z,16.77
2018-08-22T19:34:05.357Z,19.30
2018-08-22T19:36:33.818Z,16.53
2018-08-22T19:39:02.293Z,21.07
2018-08-22T19:41:33.099Z,19.47
2018-08-22T19:44:01.545Z,33.57
2018-08-22T19:46:30.008Z,24.50
2018-08-22T19:48:59.205Z,13.37
2018-08-22T19:51:27.649Z,32.83
2018-08-22T19:54:07.010Z,15.40
2018-08-22T19:56:35.538Z,28.27
2018-08-22T19:59:04.837Z,22.17
2018-08-22T20:01:34.491Z,23.53
2018-08-22T20:04:02.942Z,18.10
2018-08-22T20:06:31.421Z,18.53
2018-08-22T20:09:00.697Z,17.43
2018-08-22T20:11:31.739Z,18.43
2018-08-22T20:14:03.080Z,24.70
2018-08-22T20:16:31.570Z,22.97
2018-08-22T20:19:01.153Z,20.63
2018-08-22T20:21:32.764Z,22.53
2018-08-22T20:24:01.978Z,24.27
2018-08-22T20:26:30.824Z,27.23
2018-08-22T20:29:00.505Z,29.73
2018-08-22T20:31:28.935Z,20.20
2018-08-22T20:34:06.793Z,31.90
2018-08-22T20:36:35.315Z,18.17
2018-08-22T20:39:06.401Z,21.37
2018-08-22T20:41:35.045Z,18.90
2018-08-22T20:44:06.425Z,21.10
2018-08-22T20:46:34.889Z,23.73
2018-08-22T20:49:03.343Z,25.43
2018-08-22T20:51:32.374Z,18.43
2018-08-22T20:54:06.076Z,29.37
2018-08-22T20:56:34.636Z,24.37
2018-08-22T20:59:03.121Z,24.43
2018-08-22T21:01:31.549Z,38.70
2018-08-22T21:04:00.024Z,21.47
2018-08-22T21:06:28.463Z,27.37
2018-08-22T21:08:56.905Z,25.33
2018-08-22T21:11:25.349Z,29.47
2018-08-22T21:13:53.835Z,29.13
2018-08-22T21:16:22.305Z,26.27
2018-08-22T21:18:51.637Z,27.77
2018-08-22T21:21:24.426Z,40.00
2018-08-22T21:23:52.984Z,42.13
2018-08-22T21:26:34.403Z,33.20
2018-08-22T21:29:02.906Z,39.80
2018-08-22T21:31:31.421Z,44.77
2018-08-22T21:34:06.897Z,37.90
2018-08-22T21:36:36.417Z,40.37
2018-08-22T21:39:11.218Z,31.87
2018-08-22T21:41:39.997Z,44.90
2018-08-22T21:44:08.431Z,42.90
2018-08-22T21:46:36.881Z,44.10
2018-08-22T21:49:12.478Z,44.50
2018-08-22T21:51:41.645Z,45.83
2018-08-22T21:54:11.381Z,58.40
2018-08-22T21:56:40.198Z,47.33
2018-08-22T21:59:09.374Z,41.43
2018-08-22T22:01:46.897Z,44.20
2018-08-22T22:04:20.134Z,63.90
2018-08-22T22:06:48.578Z,40.57
2018-08-22T22:09:17.056Z,56.10
2018-08-22T22:11:45.993Z,48.07
2018-08-22T22:14:19.394Z,47.70
2018-08-22T22:16:48.337Z,54.87
2018-08-22T22:19:16.782Z,41.43
2018-08-22T22:21:45.243Z,50.03
2018-08-22T22:24:13.672Z,32.37
2018-08-22T22:26:42.145Z,51.00
2018-08-22T22:29:10.557Z,33.33
2018-08-22T22:31:39.009Z,42.40
2018-08-22T22:34:09.935Z,39.17
2018-08-22T22:36:38.392Z,40.87
2018-08-22T22:39:20.528Z,47.63
2018-08-22T22:41:48.992Z,38.07
2018-08-22T22:44:17.522Z,49.77
2018-08-22T22:46:45.965Z,48.93
2018-08-22T22:49:14.511Z,44.47
2018-08-22T22:51:42.953Z,51.43
2018-08-22T22:54:11.441Z,48.53
2018-08-22T22:56:39.876Z,36.70
2018-08-22T22:59:08.445Z,40.87
2018-08-22T23:01:36.876Z,38.23
2018-08-22T23:04:05.546Z,47.03
2018-08-22T23:06:34.029Z,39.73
2018-08-22T23:09:02.509Z,43.63
2018-08-22T23:11:30.957Z,48.90
2018-08-22T23:13:59.389Z,42.23
2018-08-22T23:16:33.280Z,43.70
2018-08-22T23:19:01.714Z,44.43
2018-08-22T23:21:30.151Z,54.60
2018-08-22T23:23:58.637Z,43.07
2018-08-22T23:26:27.094Z,42.47
2018-08-22T23:28:55.533Z,40.67
2018-08-22T23:31:23.965Z,48.57
2018-08-22T23:33:52.424Z,52.00
2018-08-22T23:36:20.859Z,51.87
2018-08-22T23:38:49.294Z,37.73
2018-08-22T23:41:17.748Z,48.27
2018-08-22T23:43:50.536Z,61.60
2018-08-22T23:46:19.201Z,61.23
2018-08-22T23:48:56.833Z,57.23
2018-08-22T23:51:25.312Z,57.67
2018-08-22T23:53:57.850Z,67.70
2018-08-22T23:56:28.292Z,48.60
2018-08-22T23:58:57.405Z,59.50
